createdAt,value
2022-08-20T00:00:48.130Z,100.00
2022-08-20T00:03:18.439Z,100.00
2022-08-20T00:06:03.377Z,100.00
2022-08-20T00:08:32.944Z,100.00
2022-08-20T00:11:02.345Z,100.00
2022-08-20T00:13:33.670Z,100.00
2022-08-20T00:16:02.494Z,100.00
2022-08-20T00:18:31.129Z,100.00
2022-08-20T00:21:01.145Z,100.00
2022-08-20T00:23:29.256Z,100.00
2022-08-20T00:25:58.810Z,100.00
2022-08-20T00:28:26.969Z,100.00
2022-08-20T00:30:55.017Z,100.00
2022-08-20T00:33:24.916Z,100.00
2022-08-20T00:35:56.418Z,100.00
2022-08-20T00:38:25.552Z,100.00
2022-08-20T00:40:55.750Z,100.00
2022-08-20T00:43:33.283Z,100.00
2022-08-20T00:46:03.584Z,100.00
2022-08-20T00:48:34.652Z,100.00
2022-08-20T00:51:07.978Z,100.00
2022-08-20T00:53:37.576Z,100.00
2022-08-20T00:56:06.489Z,100.00
2022-08-20T00:58:38.060Z,100.00
2022-08-20T01:01:07.734Z,100.00
2022-08-20T01:03:35.994Z,100.00
2022-08-20T01:06:04.692Z,100.00
2022-08-20T01:08:32.953Z,100.00
2022-08-20T01:11:12.795Z,100.00
2022-08-20T01:13:42.597Z,100.00
2022-08-20T01:16:20.904Z,100.00
2022-08-20T01:18:49.671Z,100.00
2022-08-20T01:21:22.690Z,100.00
2022-08-20T01:23:57.210Z,100.00
2022-08-20T01:26:30.451Z,100.00
2022-08-20T01:29:02.662Z,100.00
2022-08-20T01:31:34.446Z,100.00
2022-08-20T01:34:05.377Z,100.00
2022-08-20T01:36:41.894Z,100.00
2022-08-20T01:39:16.200Z,100.00
2022-08-20T01:41:58.279Z,100.00
2022-08-20T01:44:26.437Z,100.00
2022-08-20T01:46:57.785Z,100.00
2022-08-20T01:49:29.444Z,100.00
2022-08-20T01:52:02.170Z,100.00
2022-08-20T01:54:30.011Z,100.00
2022-08-20T01:57:03.483Z,100.00
2022-08-20T01:59:31.933Z,100.00
2022-08-20T02:02:00.674Z,100.00
2022-08-20T02:04:28.779Z,100.00
2022-08-20T02:06:59.083Z,100.00
2022-08-20T02:09:28.854Z,100.00
2022-08-20T02:11:57.602Z,100.00
2022-08-20T02:14:28.232Z,100.00
2022-08-20T02:16:58.507Z,100.00
2022-08-20T02:19:31.025Z,100.00
2022-08-20T02:22:03.104Z,100.00
2022-08-20T02:24:31.602Z,100.00
2022-08-20T02:26:59.984Z,100.00
2022-08-20T02:29:29.825Z,100.00
2022-08-20T02:32:31.188Z,100.00
2022-08-20T02:34:46.494Z,100.00
2022-08-20T02:37:16.446Z,100.00
2022-08-20T02:39:44.538Z,100.00
2022-08-20T02:42:13.259Z,100.00
2022-08-20T02:44:43.778Z,100.00
2022-08-20T02:47:11.880Z,100.00
2022-08-20T02:49:40.094Z,100.00
2022-08-20T02:52:08.215Z,100.00
2022-08-20T02:54:36.334Z,100.00
2022-08-20T02:57:05.137Z,100.00
2022-08-20T02:59:33.623Z,100.00
2022-08-20T03:02:03.020Z,100.00
2022-08-20T03:04:31.572Z,100.00
2022-08-20T03:07:00.558Z,100.00
2022-08-20T03:09:28.726Z,100.00
2022-08-20T03:11:56.738Z,100.00
2022-08-20T03:14:25.273Z,100.00
2022-08-20T03:16:53.321Z,100.00
2022-08-20T03:19:23.093Z,100.00
2022-08-20T03:21:51.216Z,100.00
2022-08-20T03:24:19.342Z,100.00
2022-08-20T03:26:47.444Z,100.00
2022-08-20T03:29:15.655Z,100.00
2022-08-20T03:31:43.703Z,100.00
2022-08-20T03:34:11.907Z,100.00
2022-08-20T03:36:41.489Z,100.00
2022-08-20T03:39:13.167Z,100.00
2022-08-20T03:41:41.268Z,100.00
2022-08-20T03:44:10.152Z,100.00
2022-08-20T03:46:39.028Z,100.00
2022-08-20T03:49:07.630Z,100.00
2022-08-20T03:51:57.137Z,100.00
2022-08-20T03:54:25.155Z,100.00
2022-08-20T03:57:00.861Z,100.00
2022-08-20T03:59:33.090Z,100.00
2022-08-20T04:02:02.283Z,100.00
2022-08-20T04:04:30.395Z,100.00
2022-08-20T04:06:58.445Z,100.00
2022-08-20T04:09:28.987Z,100.00
2022-08-20T04:11:58.811Z,100.00
2022-08-20T04:14:26.983Z,100.00
2022-08-20T04:16:57.590Z,100.00
2022-08-20T04:19:25.607Z,100.00
2022-08-20T04:21:53.804Z,100.00
2022-08-20T04:24:27.476Z,100.00
2022-08-20T04:27:03.020Z,100.00
2022-08-20T04:29:31.848Z,100.00
2022-08-20T04:32:02.705Z,100.00
2022-08-20T04:34:35.028Z,100.00
2022-08-20T04:37:03.483Z,100.00
2022-08-20T04:39:35.023Z,100.00
2022-08-20T04:42:04.958Z,100.00
2022-08-20T04:44:32.960Z,100.00
2022-08-20T04:47:02.055Z,100.00
2022-08-20T04:49:30.094Z,100.00
2022-08-20T04:51:58.554Z,100.00
2022-08-20T04:54:26.609Z,100.00
2022-08-20T04:56:54.693Z,100.00
2022-08-20T04:59:24.110Z,100.00
2022-08-20T05:01:52.230Z,100.00
2022-08-20T05:04:20.273Z,100.00
2022-08-20T05:06:49.586Z,100.00
2022-08-20T05:09:17.693Z,100.00
2022-08-20T05:11:45.710Z,100.00
2022-08-20T05:14:14.004Z,100.00
2022-08-20T05:16:43.442Z,100.00
2022-08-20T05:19:14.018Z,100.00
2022-08-20T05:21:42.327Z,100.00
2022-08-20T05:24:12.079Z,100.00
2022-08-20T05:26:40.574Z,100.00
2022-08-20T05:29:08.654Z,100.00
2022-08-20T05:31:38.509Z,100.00
2022-08-20T05:34:11.306Z,100.00
2022-08-20T05:36:39.768Z,100.00
2022-08-20T05:39:08.886Z,100.00
2022-08-20T05:41:37.941Z,100.00
2022-08-20T05:44:10.108Z,100.00
2022-08-20T05:46:41.938Z,100.00
2022-08-20T05:49:12.574Z,100.00
2022-08-20T05:51:40.701Z,100.00
2022-08-20T05:54:08.767Z,100.00
2022-08-20T05:56:37.831Z,100.00
2022-08-20T05:59:08.019Z,100.00
2022-08-20T06:01:38.603Z,100.00
2022-08-20T06:04:24.689Z,100.00
2022-08-20T06:06:56.448Z,100.00
2022-08-20T06:09:31.821Z,100.00
2022-08-20T06:12:02.814Z,100.00
2022-08-20T06:14:31.688Z,100.00
2022-08-20T06:17:08.410Z,100.00
2022-08-20T06:19:37.512Z,100.00
2022-08-20T06:22:17.865Z,100.00
2022-08-20T06:24:49.683Z,100.00
2022-08-20T06:27:18.121Z,100.00
2022-08-20T06:29:46.664Z,100.00
2022-08-20T06:32:17.591Z,100.00
2022-08-20T06:34:49.623Z,100.00
2022-08-20T06:37:23.278Z,100.00
2022-08-20T06:40:02.680Z,100.00
2022-08-20T06:42:30.852Z,100.00
2022-08-20T06:45:00.567Z,100.00
2022-08-20T06:47:29.021Z,100.00
2022-08-20T06:49:56.995Z,100.00
2022-08-20T06:52:29.957Z,100.00
2022-08-20T06:55:17.582Z,100.00
2022-08-20T06:57:47.858Z,100.00
2022-08-20T07:00:18.837Z,100.00
2022-08-20T07:02:48.165Z,100.00
2022-08-20T07:05:17.017Z,100.00
2022-08-20T07:07:49.914Z,100.00
2022-08-20T07:10:20.677Z,100.00
2022-08-20T07:12:50.652Z,100.00
2022-08-20T07:15:20.679Z,100.00
2022-08-20T07:17:57.516Z,100.00
2022-08-20T07:20:29.469Z,100.00
2022-08-20T07:22:58.932Z,100.00
2022-08-20T07:25:26.929Z,100.00
2022-08-20T07:28:01.143Z,100.00
2022-08-20T07:30:55.960Z,100.00
2022-08-20T07:33:26.185Z,100.00
2022-08-20T07:35:56.868Z,100.00
2022-08-20T07:38:28.406Z,100.00
2022-08-20T07:40:59.404Z,100.00
2022-08-20T07:43:28.406Z,100.00
2022-08-20T07:46:00.780Z,100.00
2022-08-20T07:48:32.263Z,99.79
2022-08-20T07:51:03.694Z,96.49
2022-08-20T07:53:35.785Z,96.88
2022-08-20T07:56:06.674Z,93.18
2022-08-20T07:58:38.409Z,92.68
2022-08-20T08:01:07.588Z,90.61
2022-08-20T08:03:40.872Z,89.39
2022-08-20T08:06:30.039Z,87.35
2022-08-20T08:09:05.532Z,83.13
2022-08-20T08:11:35.938Z,85.47
2022-08-20T08:14:06.708Z,82.66
2022-08-20T08:16:35.391Z,79.27
2022-08-20T08:19:07.199Z,81.54
2022-08-20T08:21:35.292Z,80.62
2022-08-20T08:24:05.394Z,79.37
2022-08-20T08:26:33.449Z,78.74
2022-08-20T08:29:01.450Z,82.36
2022-08-20T08:31:29.573Z,81.22
2022-08-20T08:33:57.653Z,78.57
2022-08-20T08:36:27.474Z,80.37
2022-08-20T08:38:56.700Z,77.75
2022-08-20T08:41:32.004Z,72.18
2022-08-20T08:44:08.273Z,72.65
2022-08-20T08:46:41.807Z,73.59
2022-08-20T08:49:13.727Z,67.16
2022-08-20T08:51:46.392Z,66.13
2022-08-20T08:54:16.588Z,68.06
2022-08-20T08:56:49.571Z,67.63
2022-08-20T08:59:19.959Z,69.24
2022-08-20T09:01:54.244Z,70.46
2022-08-20T09:04:30.438Z,61.15
2022-08-20T09:06:58.817Z,64.03
2022-08-20T09:09:30.724Z,64.10
2022-08-20T09:12:07.715Z,65.24
2022-08-20T09:14:35.960Z,62.18
2022-08-20T09:17:05.088Z,63.63
2022-08-20T09:19:33.141Z,59.54
2022-08-20T09:22:08.816Z,60.64
2022-08-20T09:24:36.895Z,56.61
2022-08-20T09:27:07.026Z,56.91
2022-08-20T09:29:35.033Z,58.01
2022-08-20T09:32:07.998Z,56.98
2022-08-20T09:34:39.195Z,55.16
2022-08-20T09:37:07.800Z,52.38
2022-08-20T09:39:35.936Z,53.67
2022-08-20T09:42:13.073Z,52.57
2022-08-20T09:44:42.307Z,52.22
2022-08-20T09:47:10.745Z,48.66
2022-08-20T09:49:41.925Z,47.06
2022-08-20T09:52:11.950Z,47.90
2022-08-20T09:54:46.268Z,49.00
2022-08-20T09:57:17.122Z,48.19
2022-08-20T09:59:47.361Z,46.26
2022-08-20T10:02:15.387Z,46.84
2022-08-20T10:04:43.376Z,48.62
2022-08-20T10:07:11.424Z,49.26
2022-08-20T10:09:40.024Z,48.10
2022-08-20T10:12:08.669Z,50.18
2022-08-20T10:14:38.235Z,46.54
2022-08-20T10:17:06.557Z,46.67
2022-08-20T10:19:34.652Z,44.13
2022-08-20T10:22:03.066Z,45.97
2022-08-20T10:24:31.578Z,44.38
2022-08-20T10:27:01.310Z,43.63
2022-08-20T10:29:30.623Z,44.06
2022-08-20T10:32:12.074Z,46.27
2022-08-20T10:34:40.855Z,41.47
2022-08-20T10:37:09.013Z,41.44
2022-08-20T10:39:37.329Z,42.62
2022-08-20T10:42:05.611Z,42.22
2022-08-20T10:44:33.682Z,42.63
2022-08-20T10:47:14.961Z,43.72
2022-08-20T10:49:43.061Z,41.37
2022-08-20T10:52:11.283Z,41.23
2022-08-20T10:54:42.153Z,40.57
2022-08-20T10:57:11.145Z,39.98
2022-08-20T10:59:40.625Z,41.48
2022-08-20T11:02:10.912Z,41.76
2022-08-20T11:04:40.925Z,40.65
2022-08-20T11:07:14.227Z,38.85
2022-08-20T11:09:42.631Z,38.16
2022-08-20T11:12:11.080Z,38.71
2022-08-20T11:14:39.456Z,40.09
2022-08-20T11:17:08.200Z,38.83
2022-08-20T11:19:42.788Z,40.49
2022-08-20T11:22:11.560Z,39.57
2022-08-20T11:24:40.165Z,37.93
2022-08-20T11:27:08.936Z,37.58
2022-08-20T11:29:37.382Z,37.83
2022-08-20T11:32:07.119Z,39.04
2022-08-20T11:34:35.279Z,37.00
2022-08-20T11:37:04.986Z,37.60
2022-08-20T11:39:33.174Z,34.55
2022-08-20T11:42:01.897Z,34.76
2022-08-20T11:44:29.959Z,35.50
2022-08-20T11:47:03.529Z,36.24
2022-08-20T11:49:31.963Z,36.79
2022-08-20T11:51:59.975Z,36.12
2022-08-20T11:54:32.529Z,36.72
2022-08-20T11:57:00.977Z,37.29
2022-08-20T11:59:29.093Z,34.89
2022-08-20T12:02:02.315Z,35.67
2022-08-20T12:04:33.382Z,36.74
2022-08-20T12:07:10.204Z,37.74
2022-08-20T12:09:43.033Z,37.17
2022-08-20T12:12:20.647Z,37.11
2022-08-20T12:14:48.672Z,36.70
2022-08-20T12:17:19.857Z,35.61
2022-08-20T12:19:48.571Z,34.84
2022-08-20T12:22:23.112Z,36.41
2022-08-20T12:24:55.022Z,36.38
2022-08-20T12:27:25.240Z,32.42
2022-08-20T12:29:55.656Z,33.28
2022-08-20T12:32:25.790Z,33.97
2022-08-20T12:34:54.936Z,33.39
2022-08-20T12:37:25.154Z,31.81
2022-08-20T12:39:56.876Z,32.61
2022-08-20T12:42:25.366Z,30.57
2022-08-20T12:44:53.693Z,30.50
2022-08-20T12:47:24.159Z,30.14
2022-08-20T12:49:54.782Z,28.43
2022-08-20T12:52:24.208Z,29.19
2022-08-20T12:54:54.045Z,30.40
2022-08-20T12:57:30.485Z,28.85
2022-08-20T13:00:00.415Z,29.21
2022-08-20T13:02:28.903Z,29.26
2022-08-20T13:05:02.535Z,29.05
2022-08-20T13:07:33.839Z,29.35
2022-08-20T13:10:04.807Z,30.34
2022-08-20T13:12:34.491Z,30.27
2022-08-20T13:15:02.639Z,30.86
2022-08-20T13:17:38.310Z,31.54
2022-08-20T13:20:11.848Z,31.78
2022-08-20T13:22:39.896Z,30.83
2022-08-20T13:25:12.529Z,30.61
2022-08-20T13:27:43.885Z,31.64
2022-08-20T13:30:18.245Z,30.57
2022-08-20T13:32:46.919Z,31.39
2022-08-20T13:35:15.377Z,32.38
2022-08-20T13:37:43.990Z,30.36
2022-08-20T13:40:13.188Z,28.95
2022-08-20T13:42:42.667Z,28.79
2022-08-20T13:45:11.912Z,29.44
2022-08-20T13:47:42.339Z,29.06
2022-08-20T13:50:13.304Z,27.27
2022-08-20T13:52:42.759Z,28.04
2022-08-20T13:55:13.560Z,27.40
2022-08-20T13:57:45.136Z,28.25
2022-08-20T14:00:18.498Z,27.15
2022-08-20T14:02:46.954Z,27.96
2022-08-20T14:05:18.417Z,27.45
2022-08-20T14:07:48.187Z,27.46
2022-08-20T14:10:24.691Z,27.31
2022-08-20T14:12:54.347Z,27.78
2022-08-20T14:15:22.362Z,28.80
2022-08-20T14:17:53.144Z,27.44
2022-08-20T14:20:24.369Z,28.54
2022-08-20T14:22:58.200Z,28.26
2022-08-20T14:25:27.654Z,26.80
2022-08-20T14:27:57.216Z,27.71
2022-08-20T14:30:29.415Z,29.56
2022-08-20T14:32:58.005Z,28.30
2022-08-20T14:35:26.335Z,28.80
2022-08-20T14:37:56.654Z,29.00
2022-08-20T14:40:27.782Z,29.14
2022-08-20T14:42:57.395Z,29.99
2022-08-20T14:45:25.779Z,29.02
2022-08-20T14:47:57.160Z,29.48
2022-08-20T14:50:27.888Z,28.05
2022-08-20T14:52:57.231Z,29.27
2022-08-20T14:55:28.651Z,29.93
2022-08-20T14:57:58.165Z,30.13
2022-08-20T15:00:28.676Z,30.58
2022-08-20T15:02:56.965Z,30.10
2022-08-20T15:05:25.255Z,28.83
2022-08-20T15:07:54.329Z,30.45
2022-08-20T15:10:26.060Z,30.30
2022-08-20T15:12:54.213Z,30.43
2022-08-20T15:15:24.709Z,30.90
2022-08-20T15:17:56.018Z,31.11
2022-08-20T15:20:27.933Z,31.37
2022-08-20T15:22:56.681Z,31.30
2022-08-20T15:25:27.183Z,32.11
2022-08-20T15:28:04.832Z,32.85
2022-08-20T15:30:34.290Z,33.29
2022-08-20T15:33:02.754Z,30.73
2022-08-20T15:35:31.204Z,32.24
2022-08-20T15:38:00.125Z,32.97
2022-08-20T15:40:30.611Z,31.87
2022-08-20T15:42:59.654Z,32.75
2022-08-20T15:45:28.259Z,33.33
2022-08-20T15:48:03.829Z,34.72
2022-08-20T15:50:42.081Z,34.89
2022-08-20T15:53:15.804Z,35.32
2022-08-20T15:55:52.630Z,36.48
2022-08-20T15:58:28.319Z,35.72
2022-08-20T16:01:15.370Z,36.78
2022-08-20T16:04:12.920Z,37.20
2022-08-20T16:06:43.635Z,37.30
2022-08-20T16:09:28.985Z,37.97
2022-08-20T16:12:05.683Z,38.24
2022-08-20T16:14:39.117Z,38.86
2022-08-20T16:17:10.388Z,39.58
2022-08-20T16:19:57.184Z,41.36
2022-08-20T16:22:29.295Z,41.82
2022-08-20T16:24:57.861Z,42.56
2022-08-20T16:27:35.266Z,43.05
2022-08-20T16:30:06.057Z,42.47
2022-08-20T16:32:43.442Z,43.53
2022-08-20T16:35:29.853Z,43.25
2022-08-20T16:38:04.675Z,43.40
2022-08-20T16:40:40.217Z,43.48
2022-08-20T16:43:11.611Z,46.44
2022-08-20T16:45:50.757Z,49.42
2022-08-20T16:48:20.237Z,49.87
2022-08-20T16:50:57.116Z,49.32
2022-08-20T16:53:27.133Z,51.27
2022-08-20T16:55:56.199Z,49.54
2022-08-20T16:58:24.273Z,49.51
2022-08-20T17:01:06.252Z,51.22
2022-08-20T17:03:40.212Z,50.27
2022-08-20T17:06:20.670Z,51.23
2022-08-20T17:08:51.528Z,51.53
2022-08-20T17:11:26.949Z,51.71
2022-08-20T17:14:09.344Z,53.24
2022-08-20T17:16:41.005Z,52.57
2022-08-20T17:19:13.116Z,53.68
2022-08-20T17:21:43.254Z,52.65
2022-08-20T17:24:21.558Z,51.95
2022-08-20T17:26:53.998Z,52.75
2022-08-20T17:29:28.105Z,51.96
2022-08-20T17:31:59.430Z,53.73
2022-08-20T17:34:31.619Z,54.18
2022-08-20T17:37:08.585Z,54.15
2022-08-20T17:39:46.682Z,53.78
2022-08-20T17:42:19.909Z,53.88
2022-08-20T17:44:55.145Z,56.29
2022-08-20T17:47:27.767Z,55.95
2022-08-20T17:50:03.153Z,54.96
2022-08-20T17:52:40.200Z,54.73
2022-08-20T17:55:09.877Z,55.32
2022-08-20T17:57:41.228Z,55.05
2022-08-20T18:00:14.678Z,56.11
2022-08-20T18:02:42.813Z,55.59
2022-08-20T18:05:15.614Z,56.13
2022-08-20T18:08:06.693Z,56.60
2022-08-20T18:10:41.146Z,56.12
2022-08-20T18:13:18.381Z,56.55
2022-08-20T18:15:51.787Z,56.79
2022-08-20T18:18:29.391Z,57.25
2022-08-20T18:21:22.858Z,58.01
2022-08-20T18:23:58.818Z,57.63
2022-08-20T18:26:32.346Z,58.48
2022-08-20T18:29:04.614Z,59.23
2022-08-20T18:31:35.510Z,58.97
2022-08-20T18:34:12.738Z,60.36
2022-08-20T18:36:42.489Z,59.11
2022-08-20T18:39:24.934Z,59.74
2022-08-20T18:41:58.876Z,60.50
2022-08-20T18:44:37.143Z,59.99
2022-08-20T18:47:08.657Z,59.91
2022-08-20T18:49:40.748Z,59.77
2022-08-20T18:52:14.522Z,61.21
2022-08-20T18:54:51.475Z,61.63
2022-08-20T18:57:22.795Z,60.82
2022-08-20T18:59:57.925Z,63.63
2022-08-20T19:02:29.888Z,64.06
2022-08-20T19:05:02.505Z,63.65
2022-08-20T19:07:48.027Z,63.41
2022-08-20T19:10:44.153Z,64.24
2022-08-20T19:13:49.614Z,66.30
2022-08-20T19:16:23.289Z,63.33
2022-08-20T19:18:53.743Z,63.21
2022-08-20T19:21:26.376Z,63.46
2022-08-20T19:23:57.421Z,64.49
2022-08-20T19:26:30.645Z,64.66
2022-08-20T19:29:01.511Z,65.79
2022-08-20T19:31:31.968Z,66.42
2022-08-20T19:34:21.839Z,67.15
2022-08-20T19:36:56.392Z,66.81
2022-08-20T19:39:25.658Z,67.17
2022-08-20T19:41:59.486Z,68.53
2022-08-20T19:44:36.367Z,68.33
2022-08-20T19:47:05.012Z,68.09
2022-08-20T19:49:43.215Z,68.88
2022-08-20T19:52:27.393Z,70.78
2022-08-20T19:55:02.808Z,70.75
2022-08-20T19:57:33.303Z,71.66
2022-08-20T20:00:04.870Z,71.48
2022-08-20T20:02:34.488Z,73.95
2022-08-20T20:05:08.137Z,72.02
2022-08-20T20:07:40.388Z,74.26
2022-08-20T20:10:12.134Z,74.78
2022-08-20T20:12:41.622Z,73.49
2022-08-20T20:15:10.334Z,75.16
2022-08-20T20:17:39.756Z,75.98
2022-08-20T20:20:22.486Z,77.31
2022-08-20T20:22:52.953Z,77.00
2022-08-20T20:25:24.754Z,77.55
2022-08-20T20:27:56.976Z,77.92
2022-08-20T20:30:30.161Z,79.99
2022-08-20T20:33:00.866Z,79.72
2022-08-20T20:35:32.081Z,80.55
2022-08-20T20:38:04.014Z,80.38
2022-08-20T20:40:36.072Z,80.66
2022-08-20T20:43:08.220Z,82.25
2022-08-20T20:45:39.079Z,80.29
2022-08-20T20:48:19.468Z,82.34
2022-08-20T20:50:49.309Z,83.15
2022-08-20T20:53:47.398Z,83.63
2022-08-20T20:56:28.357Z,84.72
2022-08-20T20:59:02.388Z,85.67
2022-08-20T21:01:49.642Z,85.49
2022-08-20T21:04:20.070Z,85.45
2022-08-20T21:06:48.470Z,85.80
2022-08-20T21:09:16.926Z,86.14
2022-08-20T21:11:45.179Z,85.99
2022-08-20T21:14:14.852Z,86.17
2022-08-20T21:16:43.342Z,86.52
2022-08-20T21:19:11.921Z,87.58
2022-08-20T21:21:40.974Z,88.48
2022-08-20T21:24:09.983Z,89.09
2022-08-20T21:26:38.751Z,89.02
2022-08-20T21:29:09.426Z,89.18
2022-08-20T21:31:43.501Z,89.42
2022-08-20T21:34:13.211Z,89.11
2022-08-20T21:36:41.734Z,88.84
2022-08-20T21:39:11.453Z,88.85
2022-08-20T21:41:40.382Z,90.41
2022-08-20T21:44:24.721Z,89.46
2022-08-20T21:46:55.846Z,89.17
2022-08-20T21:49:25.590Z,89.34
2022-08-20T21:51:54.168Z,89.50
2022-08-20T21:54:22.937Z,90.34
2022-08-20T21:56:55.481Z,91.63
2022-08-20T21:59:25.097Z,91.72
2022-08-20T22:01:54.584Z,91.54
2022-08-20T22:04:22.784Z,91.73
2022-08-20T22:06:50.933Z,92.40
2022-08-20T22:09:19.115Z,92.14
2022-08-20T22:11:53.435Z,91.89
2022-08-20T22:14:22.665Z,93.23
2022-08-20T22:16:50.665Z,94.60
2022-08-20T22:19:20.104Z,93.59
2022-08-20T22:21:49.457Z,93.83
2022-08-20T22:24:17.706Z,93.52
2022-08-20T22:26:45.747Z,93.52
2022-08-20T22:29:13.823Z,93.34
2022-08-20T22:31:44.552Z,92.84
2022-08-20T22:34:14.315Z,94.43
2022-08-20T22:36:44.436Z,94.11
2022-08-20T22:39:12.579Z,94.60
2022-08-20T22:41:41.248Z,94.89
2022-08-20T22:44:09.415Z,94.97
2022-08-20T22:46:46.395Z,95.98
2022-08-20T22:49:19.672Z,95.50
2022-08-20T22:51:49.125Z,95.55
2022-08-20T22:54:21.507Z,96.44
2022-08-20T22:56:49.829Z,96.55
2022-08-20T22:59:19.322Z,97.01
2022-08-20T23:01:47.983Z,97.88
2022-08-20T23:04:22.802Z,98.07
2022-08-20T23:06:52.708Z,97.83
2022-08-20T23:09:21.300Z,97.91
2022-08-20T23:11:49.745Z,97.73
2022-08-20T23:14:18.074Z,99.24
2022-08-20T23:16:50.073Z,99.15
2022-08-20T23:19:22.532Z,98.77
2022-08-20T23:21:52.595Z,98.91
2022-08-20T23:24:21.020Z,99.19
2022-08-20T23:26:53.115Z,99.30
2022-08-20T23:29:22.355Z,99.40
2022-08-20T23:31:54.098Z,100.00
2022-08-20T23:34:22.209Z,99.59
2022-08-20T23:36:52.748Z,100.00
2022-08-20T23:39:20.940Z,100.00
2022-08-20T23:41:49.111Z,100.00
2022-08-20T23:44:26.457Z,100.00
2022-08-20T23:46:56.189Z,100.00
2022-08-20T23:49:24.256Z,100.00
2022-08-20T23:51:53.628Z,100.00
2022-08-20T23:54:21.896Z,100.00
2022-08-20T23:56:50.129Z,100.00
2022-08-20T23:59:18.350Z,100.00
